createdAt,value
2023-05-10T00:01:04.854Z,7.29
2023-05-10T00:03:32.529Z,7.27
2023-05-10T00:06:00.112Z,7.31
2023-05-10T00:08:27.579Z,7.35
2023-05-10T00:10:55.089Z,7.35
2023-05-10T00:13:23.227Z,7.33
2023-05-10T00:15:51.950Z,7.36
2023-05-10T00:18:19.439Z,7.35
2023-05-10T00:20:47.333Z,7.37
2023-05-10T00:23:15.032Z,7.42
2023-05-10T00:25:42.503Z,7.43
2023-05-10T00:28:10.201Z,7.43
2023-05-10T00:30:38.579Z,7.44
2023-05-10T00:33:06.141Z,7.48
2023-05-10T00:35:33.812Z,7.44
2023-05-10T00:38:01.443Z,7.51
2023-05-10T00:40:29.960Z,7.52
2023-05-10T00:43:02.697Z,7.58
2023-05-10T00:45:32.566Z,7.65
2023-05-10T00:48:02.492Z,7.70
2023-05-10T00:50:30.466Z,7.69
2023-05-10T00:52:59.456Z,7.78
2023-05-10T00:55:27.352Z,7.79
2023-05-10T00:57:55.541Z,7.83
2023-05-10T01:00:23.354Z,7.87
2023-05-10T01:02:51.517Z,7.93
2023-05-10T01:05:19.221Z,7.96
2023-05-10T01:07:46.984Z,8.01
2023-05-10T01:10:14.659Z,8.04
2023-05-10T01:12:45.732Z,8.15
2023-05-10T01:15:14.574Z,8.13
2023-05-10T01:17:45.654Z,8.24
2023-05-10T01:20:14.153Z,8.26
2023-05-10T01:23:00.264Z,8.36
2023-05-10T01:25:39.773Z,8.55
2023-05-10T01:28:34.888Z,8.65
2023-05-10T01:31:17.694Z,8.70
2023-05-10T01:34:00.631Z,8.82
2023-05-10T01:36:33.875Z,8.81
2023-05-10T01:39:11.072Z,9.11
2023-05-10T01:41:52.789Z,9.06
2023-05-10T01:44:43.157Z,9.07
2023-05-10T01:47:12.245Z,9.15
2023-05-10T01:49:48.958Z,9.26
2023-05-10T01:52:20.681Z,9.34
2023-05-10T01:54:57.321Z,9.47
2023-05-10T01:57:29.152Z,9.50
2023-05-10T02:00:00.020Z,9.49
2023-05-10T02:02:28.889Z,9.56
2023-05-10T02:04:58.518Z,9.67
2023-05-10T02:07:28.191Z,9.74
2023-05-10T02:09:57.204Z,9.83
2023-05-10T02:12:26.981Z,9.91
2023-05-10T02:14:56.417Z,10.00
2023-05-10T02:17:26.112Z,10.13
2023-05-10T02:19:55.413Z,10.27
2023-05-10T02:22:25.841Z,10.37
2023-05-10T02:24:55.507Z,10.44
2023-05-10T02:27:25.054Z,10.50
2023-05-10T02:29:53.886Z,10.55
2023-05-10T02:32:25.449Z,10.72
2023-05-10T02:34:54.283Z,10.68
2023-05-10T02:37:23.016Z,10.94
2023-05-10T02:39:52.160Z,11.12
2023-05-10T02:42:26.697Z,11.31
2023-05-10T02:45:02.530Z,11.69
2023-05-10T02:47:32.689Z,12.58
2023-05-10T02:50:00.784Z,13.57
2023-05-10T02:52:32.459Z,14.45
2023-05-10T02:55:04.672Z,15.42
2023-05-10T02:57:37.437Z,16.11
2023-05-10T03:00:05.510Z,16.88
2023-05-10T03:02:33.939Z,17.49
2023-05-10T03:05:02.297Z,18.04
2023-05-10T03:07:31.143Z,18.43
2023-05-10T03:10:00.502Z,18.89
2023-05-10T03:13:04.656Z,19.17
2023-05-10T03:15:59.420Z,19.70
2023-05-10T03:18:41.755Z,20.28
2023-05-10T03:21:13.625Z,20.78
2023-05-10T03:23:46.031Z,20.96
2023-05-10T03:26:27.903Z,21.39
2023-05-10T03:29:04.932Z,22.10
2023-05-10T03:31:32.590Z,22.48
2023-05-10T03:34:01.198Z,23.10
2023-05-10T03:36:28.789Z,23.70
2023-05-10T03:38:57.054Z,24.14
2023-05-10T03:41:26.753Z,24.69
2023-05-10T03:43:55.160Z,25.11
2023-05-10T03:46:23.164Z,25.55
2023-05-10T03:48:50.908Z,26.09
2023-05-10T03:51:19.115Z,26.49
2023-05-10T03:53:46.587Z,26.80
2023-05-10T03:56:14.109Z,27.19
2023-05-10T03:58:41.716Z,27.64
2023-05-10T04:01:09.280Z,28.10
2023-05-10T04:03:37.981Z,28.49
2023-05-10T04:06:06.865Z,28.90
2023-05-10T04:08:34.417Z,28.89
2023-05-10T04:11:12.436Z,28.57
2023-05-10T04:13:40.204Z,28.94
2023-05-10T04:16:07.882Z,29.21
2023-05-10T04:18:35.499Z,29.67
2023-05-10T04:21:03.046Z,29.92
2023-05-10T04:23:30.614Z,30.11
2023-05-10T04:26:02.164Z,30.32
2023-05-10T04:28:29.808Z,30.45
2023-05-10T04:31:07.326Z,30.58
2023-05-10T04:33:35.164Z,30.78
2023-05-10T04:36:03.458Z,30.60
2023-05-10T04:38:31.028Z,30.38
2023-05-10T04:41:11.815Z,30.39
2023-05-10T04:43:39.957Z,30.79
2023-05-10T04:46:08.686Z,31.32
2023-05-10T04:48:36.254Z,31.42
2023-05-10T04:51:05.224Z,31.35
2023-05-10T04:53:32.814Z,31.26
2023-05-10T04:56:00.312Z,31.48
2023-05-10T04:58:27.760Z,31.66
2023-05-10T05:00:55.276Z,31.58
2023-05-10T05:03:23.715Z,31.72
2023-05-10T05:05:51.155Z,31.91
2023-05-10T05:08:18.802Z,31.98
2023-05-10T05:10:46.371Z,31.76
2023-05-10T05:13:14.451Z,31.84
2023-05-10T05:15:42.370Z,31.98
2023-05-10T05:18:09.932Z,32.24
2023-05-10T05:20:37.574Z,32.44
2023-05-10T05:23:05.056Z,32.33
2023-05-10T05:25:32.817Z,32.43
2023-05-10T05:28:00.348Z,32.67
2023-05-10T05:30:28.228Z,32.73
2023-05-10T05:32:56.199Z,32.91
2023-05-10T05:35:23.789Z,33.20
2023-05-10T05:37:51.397Z,33.42
2023-05-10T05:40:18.918Z,33.50
2023-05-10T05:42:47.673Z,33.67
2023-05-10T05:45:15.917Z,33.73
2023-05-10T05:47:43.692Z,33.77
2023-05-10T05:50:11.504Z,33.56
2023-05-10T05:52:39.025Z,32.90
2023-05-10T05:55:06.702Z,32.54
2023-05-10T05:57:34.261Z,32.38
2023-05-10T06:00:01.849Z,32.08
2023-05-10T06:02:40.252Z,31.82
2023-05-10T06:05:08.548Z,31.83
2023-05-10T06:07:36.149Z,31.97
2023-05-10T06:10:04.257Z,32.15
2023-05-10T06:12:31.848Z,32.03
2023-05-10T06:14:59.380Z,31.82
2023-05-10T06:17:26.873Z,31.56
2023-05-10T06:19:54.487Z,31.33
2023-05-10T06:22:23.948Z,31.29
2023-05-10T06:24:51.376Z,31.26
2023-05-10T06:27:18.847Z,31.25
2023-05-10T06:29:46.313Z,31.21
2023-05-10T06:32:13.753Z,31.36
2023-05-10T06:34:41.289Z,31.48
2023-05-10T06:37:08.721Z,31.53
2023-05-10T06:39:36.156Z,31.47
2023-05-10T06:42:05.868Z,30.78
2023-05-10T06:44:33.979Z,30.68
2023-05-10T06:47:01.616Z,30.61
2023-05-10T06:49:29.079Z,30.58
2023-05-10T06:51:59.820Z,30.66
2023-05-10T06:54:27.219Z,30.67
2023-05-10T06:56:55.268Z,30.73
2023-05-10T06:59:22.959Z,30.90
2023-05-10T07:01:50.503Z,31.02
2023-05-10T07:04:19.140Z,31.30
2023-05-10T07:06:47.744Z,31.68
2023-05-10T07:09:15.257Z,31.93
2023-05-10T07:11:43.073Z,32.17
2023-05-10T07:14:10.876Z,32.53
2023-05-10T07:16:38.675Z,32.40
2023-05-10T07:19:06.886Z,32.14
2023-05-10T07:21:34.392Z,31.96
2023-05-10T07:24:02.249Z,32.00
2023-05-10T07:26:30.221Z,31.93
2023-05-10T07:28:57.702Z,31.91
2023-05-10T07:31:25.174Z,31.71
2023-05-10T07:33:52.765Z,31.17
2023-05-10T07:36:20.382Z,30.51
2023-05-10T07:38:47.994Z,30.07
2023-05-10T07:41:15.559Z,29.81
2023-05-10T07:43:42.977Z,29.79
2023-05-10T07:46:11.506Z,29.41
2023-05-10T07:48:39.065Z,29.33
2023-05-10T07:51:08.661Z,29.26
2023-05-10T07:53:36.454Z,29.08
2023-05-10T07:56:30.886Z,29.45
2023-05-10T07:58:58.615Z,28.69
2023-05-10T08:01:26.723Z,28.74
2023-05-10T08:03:54.768Z,28.74
2023-05-10T08:06:23.495Z,28.57
2023-05-10T08:08:51.844Z,28.47
2023-05-10T08:11:19.970Z,28.45
2023-05-10T08:13:48.657Z,28.14
2023-05-10T08:16:16.946Z,27.77
2023-05-10T08:18:46.756Z,27.79
2023-05-10T08:21:15.227Z,27.51
2023-05-10T08:23:42.835Z,27.12
2023-05-10T08:26:10.350Z,26.97
2023-05-10T08:28:37.817Z,27.16
2023-05-10T08:31:06.401Z,26.98
2023-05-10T08:33:33.929Z,26.89
2023-05-10T08:36:01.498Z,26.80
2023-05-10T08:38:29.074Z,26.79
2023-05-10T08:41:00.073Z,26.56
2023-05-10T08:43:31.466Z,26.40
2023-05-10T08:46:02.609Z,26.43
2023-05-10T08:48:32.301Z,25.89
2023-05-10T08:51:02.047Z,25.89
2023-05-10T08:53:34.470Z,26.07
2023-05-10T08:56:03.593Z,25.78
2023-05-10T08:58:32.093Z,25.43
2023-05-10T09:01:00.682Z,25.35
2023-05-10T09:03:28.246Z,24.73
2023-05-10T09:05:57.199Z,24.16
2023-05-10T09:08:28.943Z,23.94
2023-05-10T09:10:56.803Z,23.88
2023-05-10T09:13:25.705Z,23.86
2023-05-10T09:15:54.404Z,23.72
2023-05-10T09:18:21.899Z,23.54
2023-05-10T09:20:50.288Z,23.40
2023-05-10T09:23:17.781Z,23.38
2023-05-10T09:25:45.238Z,23.42
2023-05-10T09:28:13.255Z,23.51
2023-05-10T09:30:40.982Z,23.47
2023-05-10T09:33:09.190Z,22.89
2023-05-10T09:35:37.407Z,22.61
2023-05-10T09:38:06.706Z,22.49
2023-05-10T09:40:34.175Z,22.22
2023-05-10T09:43:04.644Z,21.87
2023-05-10T09:45:36.201Z,21.44
2023-05-10T09:48:06.240Z,21.41
2023-05-10T09:50:33.701Z,21.25
2023-05-10T09:53:04.517Z,21.30
2023-05-10T09:55:47.179Z,21.59
2023-05-10T09:58:15.577Z,20.92
2023-05-10T10:00:53.562Z,20.58
2023-05-10T10:03:22.525Z,20.47
2023-05-10T10:05:50.470Z,20.62
2023-05-10T10:08:19.337Z,20.57
2023-05-10T10:10:48.285Z,20.18
2023-05-10T10:13:16.746Z,20.14
2023-05-10T10:15:45.791Z,20.09
2023-05-10T10:18:16.772Z,20.14
2023-05-10T10:20:44.418Z,20.08
2023-05-10T10:23:11.933Z,19.99
2023-05-10T10:25:40.121Z,19.81
2023-05-10T10:28:29.082Z,20.13
2023-05-10T10:31:01.483Z,20.00
2023-05-10T10:33:52.573Z,20.27
2023-05-10T10:36:20.822Z,19.63
2023-05-10T10:38:48.156Z,19.54
2023-05-10T10:41:50.845Z,19.86
2023-05-10T10:44:28.658Z,19.39
2023-05-10T10:47:09.724Z,19.62
2023-05-10T10:49:45.322Z,19.85
2023-05-10T10:52:16.703Z,19.48
2023-05-10T10:54:55.953Z,19.45
2023-05-10T10:57:23.523Z,18.98
2023-05-10T10:59:51.093Z,18.94
2023-05-10T11:02:36.594Z,19.16
2023-05-10T11:05:37.706Z,19.39
2023-05-10T11:08:09.500Z,19.24
2023-05-10T11:10:37.144Z,19.28
2023-05-10T11:13:10.216Z,19.46
2023-05-10T11:15:39.690Z,19.45
2023-05-10T11:18:27.024Z,19.58
2023-05-10T11:20:59.936Z,19.28
2023-05-10T11:23:57.546Z,19.39
2023-05-10T11:26:27.413Z,19.01
2023-05-10T11:28:59.781Z,18.73
2023-05-10T11:31:28.171Z,18.53
2023-05-10T11:33:58.438Z,18.61
2023-05-10T11:36:28.827Z,18.53
2023-05-10T11:39:04.306Z,18.52
2023-05-10T11:41:32.620Z,18.45
2023-05-10T11:44:00.285Z,18.59
2023-05-10T11:46:29.725Z,18.71
2023-05-10T11:49:05.843Z,18.76
2023-05-10T11:51:37.225Z,18.73
2023-05-10T11:54:10.655Z,18.78
2023-05-10T11:56:41.964Z,18.82
2023-05-10T11:59:09.568Z,18.63
2023-05-10T12:01:37.890Z,18.70
2023-05-10T12:04:08.379Z,18.50
2023-05-10T12:06:42.203Z,18.64
2023-05-10T12:09:10.339Z,18.52
2023-05-10T12:11:43.996Z,18.49
2023-05-10T12:14:12.735Z,18.51
2023-05-10T12:16:40.295Z,18.51
2023-05-10T12:19:08.049Z,18.54
2023-05-10T12:21:35.919Z,18.56
2023-05-10T12:24:08.868Z,18.62
2023-05-10T12:26:37.474Z,18.47
2023-05-10T12:29:18.151Z,18.57
2023-05-10T12:31:56.848Z,18.56
2023-05-10T12:34:43.488Z,18.48
2023-05-10T12:37:11.115Z,18.43
2023-05-10T12:39:43.584Z,18.53
2023-05-10T12:42:11.955Z,18.50
2023-05-10T12:44:40.031Z,18.50
2023-05-10T12:47:07.491Z,18.53
2023-05-10T12:49:35.370Z,18.50
2023-05-10T12:52:03.146Z,18.57
2023-05-10T12:54:30.751Z,18.54
2023-05-10T12:56:58.288Z,18.49
2023-05-10T12:59:25.901Z,18.39
2023-05-10T13:01:53.425Z,18.34
2023-05-10T13:04:20.926Z,18.43
2023-05-10T13:06:48.590Z,18.51
2023-05-10T13:09:16.577Z,18.57
2023-05-10T13:11:44.078Z,18.50
2023-05-10T13:14:11.545Z,18.42
2023-05-10T13:16:39.158Z,18.25
2023-05-10T13:19:06.895Z,18.13
2023-05-10T13:21:34.458Z,18.13
2023-05-10T13:24:02.648Z,18.11
2023-05-10T13:26:30.293Z,18.09
2023-05-10T13:28:57.963Z,17.98
2023-05-10T13:31:25.488Z,17.96
2023-05-10T13:33:53.040Z,17.96
2023-05-10T13:36:20.513Z,18.04
2023-05-10T13:38:48.040Z,17.99
2023-05-10T13:41:15.746Z,17.87
2023-05-10T13:43:43.152Z,17.70
2023-05-10T13:46:10.811Z,17.63
2023-05-10T13:48:39.090Z,17.57
2023-05-10T13:51:06.743Z,17.51
2023-05-10T13:53:34.744Z,17.30
2023-05-10T13:56:03.506Z,17.22
2023-05-10T13:58:31.026Z,17.02
2023-05-10T14:00:58.453Z,17.02
2023-05-10T14:03:26.168Z,16.87
2023-05-10T14:05:53.773Z,16.83
2023-05-10T14:08:21.475Z,16.78
2023-05-10T14:10:49.994Z,16.60
2023-05-10T14:13:17.519Z,16.58
2023-05-10T14:15:45.028Z,16.60
2023-05-10T14:18:12.617Z,16.65
2023-05-10T14:20:40.303Z,16.55
2023-05-10T14:23:09.802Z,16.59
2023-05-10T14:25:39.400Z,16.42
2023-05-10T14:28:07.098Z,16.38
2023-05-10T14:30:37.874Z,16.38
2023-05-10T14:33:05.567Z,16.03
2023-05-10T14:35:33.256Z,16.10
2023-05-10T14:38:00.786Z,16.10
2023-05-10T14:40:28.334Z,16.10
2023-05-10T14:42:56.080Z,16.02
2023-05-10T14:45:24.259Z,16.08
2023-05-10T14:47:51.843Z,16.02
2023-05-10T14:50:35.235Z,15.96
2023-05-10T14:53:03.816Z,15.80
2023-05-10T14:55:31.436Z,15.76
2023-05-10T14:57:59.778Z,15.76
2023-05-10T15:00:29.035Z,15.70
2023-05-10T15:02:57.140Z,15.70
2023-05-10T15:05:25.275Z,15.68
2023-05-10T15:07:52.837Z,15.66
2023-05-10T15:10:20.385Z,15.58
2023-05-10T15:12:48.104Z,15.52
2023-05-10T15:15:16.437Z,15.31
2023-05-10T15:17:44.126Z,15.15
2023-05-10T15:20:11.966Z,15.24
2023-05-10T15:22:39.772Z,15.18
2023-05-10T15:25:07.624Z,15.11
2023-05-10T15:27:35.199Z,14.91
2023-05-10T15:30:02.719Z,14.98
2023-05-10T15:32:31.505Z,14.83
2023-05-10T15:34:59.892Z,14.82
2023-05-10T15:37:27.571Z,14.70
2023-05-10T15:39:56.347Z,14.63
2023-05-10T15:42:25.055Z,14.56
2023-05-10T15:44:52.484Z,14.39
2023-05-10T15:47:20.365Z,14.32
2023-05-10T15:49:47.966Z,14.30
2023-05-10T15:52:15.987Z,14.12
2023-05-10T15:54:43.487Z,14.19
2023-05-10T15:57:11.055Z,14.03
2023-05-10T15:59:38.692Z,13.89
2023-05-10T16:02:07.600Z,13.95
2023-05-10T16:04:35.163Z,13.91
2023-05-10T16:07:02.936Z,13.85
2023-05-10T16:09:30.617Z,13.71
2023-05-10T16:11:58.231Z,13.73
2023-05-10T16:14:25.749Z,13.60
2023-05-10T16:16:53.567Z,13.60
2023-05-10T16:19:21.536Z,13.46
2023-05-10T16:21:49.313Z,13.36
2023-05-10T16:24:18.392Z,13.22
2023-05-10T16:26:46.279Z,13.18
2023-05-10T16:29:14.657Z,13.26
2023-05-10T16:31:42.180Z,13.17
2023-05-10T16:34:09.911Z,13.17
2023-05-10T16:36:37.544Z,13.25
2023-05-10T16:39:05.205Z,13.16
2023-05-10T16:41:36.237Z,13.19
2023-05-10T16:44:04.641Z,12.94
2023-05-10T16:46:33.816Z,12.83
2023-05-10T16:49:02.022Z,12.75
2023-05-10T16:51:29.810Z,12.61
2023-05-10T16:53:57.343Z,12.51
2023-05-10T16:56:24.951Z,12.39
2023-05-10T16:58:52.559Z,12.35
2023-05-10T17:01:20.045Z,12.36
2023-05-10T17:03:47.814Z,12.22
2023-05-10T17:06:15.436Z,12.09
2023-05-10T17:08:43.526Z,12.02
2023-05-10T17:11:10.972Z,12.02
2023-05-10T17:13:39.187Z,12.02
2023-05-10T17:16:08.449Z,12.01
2023-05-10T17:18:36.892Z,12.11
2023-05-10T17:21:04.840Z,12.13
2023-05-10T17:23:32.479Z,12.10
2023-05-10T17:26:01.668Z,12.10
2023-05-10T17:28:29.413Z,12.11
2023-05-10T17:31:00.453Z,12.15
2023-05-10T17:33:28.074Z,12.07
2023-05-10T17:35:56.606Z,12.03
2023-05-10T17:38:24.184Z,11.90
2023-05-10T17:40:52.002Z,11.77
2023-05-10T17:43:20.622Z,11.72
2023-05-10T17:45:49.971Z,11.80
2023-05-10T17:48:17.650Z,11.79
2023-05-10T17:50:45.343Z,11.77
2023-05-10T17:53:12.891Z,11.71
2023-05-10T17:55:41.803Z,11.76
2023-05-10T17:58:11.600Z,11.75
2023-05-10T18:00:39.839Z,11.70
2023-05-10T18:03:07.475Z,11.68
2023-05-10T18:05:39.667Z,11.75
2023-05-10T18:08:07.825Z,11.51
2023-05-10T18:10:35.318Z,11.42
2023-05-10T18:13:05.422Z,11.39
2023-05-10T18:15:34.936Z,11.31
2023-05-10T18:18:04.390Z,11.25
2023-05-10T18:20:32.594Z,11.20
2023-05-10T18:23:00.281Z,11.17
2023-05-10T18:25:27.827Z,11.27
2023-05-10T18:27:55.462Z,11.34
2023-05-10T18:30:23.030Z,11.25
2023-05-10T18:32:50.668Z,11.22
2023-05-10T18:35:19.209Z,11.16
2023-05-10T18:37:47.613Z,11.10
2023-05-10T18:40:15.125Z,11.08
2023-05-10T18:42:42.621Z,11.13
2023-05-10T18:45:10.227Z,11.08
2023-05-10T18:47:38.105Z,11.10
2023-05-10T18:50:05.967Z,11.18
2023-05-10T18:52:33.537Z,11.26
2023-05-10T18:55:01.646Z,11.35
2023-05-10T18:57:29.849Z,11.37
2023-05-10T18:59:57.333Z,11.38
2023-05-10T19:02:26.941Z,11.40
2023-05-10T19:04:54.576Z,11.40
2023-05-10T19:07:22.048Z,11.43
2023-05-10T19:09:49.676Z,11.45
2023-05-10T19:12:18.863Z,11.46
2023-05-10T19:14:46.338Z,11.46
2023-05-10T19:17:15.377Z,11.47
2023-05-10T19:19:44.404Z,11.51
2023-05-10T19:22:12.114Z,11.50
2023-05-10T19:24:39.561Z,11.52
2023-05-10T19:27:07.058Z,11.55
2023-05-10T19:29:34.554Z,11.53
2023-05-10T19:32:02.156Z,11.55
2023-05-10T19:34:30.229Z,11.55
2023-05-10T19:36:58.721Z,11.57
2023-05-10T19:39:27.190Z,11.60
2023-05-10T19:41:54.739Z,11.56
2023-05-10T19:44:23.126Z,11.55
2023-05-10T19:46:51.440Z,11.59
2023-05-10T19:49:19.182Z,11.58
2023-05-10T19:51:46.621Z,11.52
2023-05-10T19:54:14.190Z,11.53
2023-05-10T19:56:41.712Z,11.54
2023-05-10T19:59:09.947Z,11.53
2023-05-10T20:01:37.696Z,11.51
2023-05-10T20:04:05.294Z,11.51
2023-05-10T20:06:33.316Z,11.50
2023-05-10T20:09:00.897Z,11.45
2023-05-10T20:11:28.350Z,11.46
2023-05-10T20:13:55.877Z,11.44
2023-05-10T20:16:26.440Z,11.44
2023-05-10T20:18:54.856Z,11.40
2023-05-10T20:21:22.788Z,11.40
2023-05-10T20:23:50.441Z,11.39
2023-05-10T20:26:18.046Z,11.38
2023-05-10T20:28:45.550Z,11.38
2023-05-10T20:31:13.106Z,11.32
2023-05-10T20:33:40.580Z,11.33
2023-05-10T20:36:09.951Z,11.30
2023-05-10T20:38:37.435Z,11.30
2023-05-10T20:41:04.978Z,11.29
2023-05-10T20:43:32.466Z,11.31
2023-05-10T20:46:05.623Z,11.29
2023-05-10T20:48:33.428Z,11.31
2023-05-10T20:51:02.522Z,11.18
2023-05-10T20:53:30.283Z,11.28
2023-05-10T20:55:57.825Z,11.26
2023-05-10T20:58:25.282Z,11.24
2023-05-10T21:00:52.788Z,11.24
2023-05-10T21:03:20.201Z,11.18
2023-05-10T21:05:48.884Z,11.19
2023-05-10T21:08:16.349Z,11.16
2023-05-10T21:10:43.958Z,11.06
2023-05-10T21:13:11.476Z,11.10
2023-05-10T21:15:38.951Z,11.08
2023-05-10T21:18:06.633Z,11.06
2023-05-10T21:20:34.243Z,11.02
2023-05-10T21:23:01.755Z,11.03
2023-05-10T21:25:29.329Z,11.00
2023-05-10T21:27:57.286Z,10.97
2023-05-10T21:30:24.973Z,10.94
2023-05-10T21:32:52.569Z,10.91
2023-05-10T21:35:20.101Z,10.90
2023-05-10T21:37:47.618Z,10.91
2023-05-10T21:40:15.534Z,10.84
2023-05-10T21:42:43.229Z,10.82
2023-05-10T21:45:11.182Z,10.82
2023-05-10T21:47:38.730Z,10.79
2023-05-10T21:50:06.848Z,10.79
2023-05-10T21:52:34.392Z,10.80
2023-05-10T21:55:02.072Z,10.79
2023-05-10T21:57:31.100Z,10.76
2023-05-10T21:59:58.774Z,10.73
2023-05-10T22:02:26.329Z,10.72
2023-05-10T22:04:53.959Z,10.69
2023-05-10T22:07:21.533Z,10.69
2023-05-10T22:09:49.045Z,10.65
2023-05-10T22:12:16.606Z,10.61
2023-05-10T22:14:44.149Z,10.61
2023-05-10T22:17:11.811Z,10.59
2023-05-10T22:19:39.315Z,10.59
2023-05-10T22:22:06.836Z,10.59
2023-05-10T22:24:34.413Z,10.59
2023-05-10T22:27:03.323Z,10.57
2023-05-10T22:29:30.999Z,10.55
2023-05-10T22:31:59.078Z,10.54
2023-05-10T22:34:27.091Z,10.51
2023-05-10T22:36:54.653Z,10.51
2023-05-10T22:39:22.250Z,10.46
2023-05-10T22:41:49.680Z,10.47
2023-05-10T22:44:18.023Z,10.46
2023-05-10T22:46:46.144Z,10.47
2023-05-10T22:49:14.086Z,10.44
2023-05-10T22:51:41.627Z,10.41
2023-05-10T22:54:09.241Z,10.37
2023-05-10T22:56:36.836Z,10.33
2023-05-10T22:59:04.478Z,10.31
2023-05-10T23:01:32.083Z,10.30
2023-05-10T23:03:59.899Z,10.29
2023-05-10T23:06:28.542Z,10.27
2023-05-10T23:08:56.088Z,10.27
2023-05-10T23:11:23.559Z,10.26
2023-05-10T23:13:51.712Z,10.26
2023-05-10T23:16:19.290Z,10.25
2023-05-10T23:18:46.916Z,10.25
2023-05-10T23:21:14.698Z,10.27
2023-05-10T23:23:42.245Z,10.23
2023-05-10T23:26:09.827Z,10.24
2023-05-10T23:28:37.372Z,10.22
2023-05-10T23:31:05.052Z,10.21
2023-05-10T23:33:32.605Z,10.18
2023-05-10T23:36:00.230Z,10.15
2023-05-10T23:38:27.760Z,10.17
2023-05-10T23:40:55.368Z,10.15
2023-05-10T23:43:23.101Z,10.14
2023-05-10T23:45:57.624Z,10.25
2023-05-10T23:48:25.595Z,10.12
2023-05-10T23:50:53.318Z,10.11
2023-05-10T23:53:20.901Z,10.06
2023-05-10T23:55:48.529Z,10.05
2023-05-10T23:58:16.146Z,10.06
